Terminal Aerodrome Forecast
Issued by NWS Norman, OK

Home | Current Version | Previous Version | Text Only | Print | Product List | Glossary On
Versions: 1 2 3 4 5 6 7 8 9 10 11 12 13 14 15 16 17 18 19 20 21 22 23 24 25 26
000
FTUS44 KOUN 221136
TAFSPS
TAF
KSPS 221136Z 2212/2312 02006KT 1 1/2SM -FZDZ BR OVC004
     FM221400 02007KT 4SM BR OVC008
      TEMPO 2214/2218 3SM -FZRA OVC005
     FM230000 16004KT 2SM BR OVC004
     FM230600 20006KT 4SM BR FEW004 BKN025=

USA.gov is the U.S. government's official web portal to all federal, state and local government web resources and services.